sensor_id;sensor_type;location;lat;lon;timestamp;P1;durP1;ratioP1;P2;durP2;ratioP2
47659;SDS011;33403;43.608;1.458;2023-01-24T00:00:57;37.63;;;19.57;;
47659;SDS011;33403;43.608;1.458;2023-01-24T00:03:23;38.47;;;20.13;;
47659;SDS011;33403;43.608;1.458;2023-01-24T00:05:49;37.73;;;19.33;;
47659;SDS011;33403;43.608;1.458;2023-01-24T00:08:16;39.40;;;18.93;;
47659;SDS011;33403;43.608;1.458;2023-01-24T00:10:44;38.93;;;19.73;;
47659;SDS011;33403;43.608;1.458;2023-01-24T00:13:11;41.00;;;20.23;;
47659;SDS011;33403;43.608;1.458;2023-01-24T00:15:37;37.10;;;19.13;;
47659;SDS011;33403;43.608;1.458;2023-01-24T00:18:03;38.63;;;19.23;;
47659;SDS011;33403;43.608;1.458;2023-01-24T00:20:29;39.53;;;20.10;;
47659;SDS011;33403;43.608;1.458;2023-01-24T00:22:55;38.37;;;19.67;;
47659;SDS011;33403;43.608;1.458;2023-01-24T00:25:22;40.37;;;20.27;;
47659;SDS011;33403;43.608;1.458;2023-01-24T00:27:48;38.17;;;19.93;;
47659;SDS011;33403;43.608;1.458;2023-01-24T00:30:14;37.67;;;19.17;;
47659;SDS011;33403;43.608;1.458;2023-01-24T00:32:40;37.40;;;19.83;;
47659;SDS011;33403;43.608;1.458;2023-01-24T00:35:06;39.93;;;19.93;;
47659;SDS011;33403;43.608;1.458;2023-01-24T00:37:32;39.60;;;19.93;;
47659;SDS011;33403;43.608;1.458;2023-01-24T00:39:58;37.33;;;19.57;;
47659;SDS011;33403;43.608;1.458;2023-01-24T00:42:25;39.23;;;19.97;;
47659;SDS011;33403;43.608;1.458;2023-01-24T00:44:50;37.13;;;19.77;;
47659;SDS011;33403;43.608;1.458;2023-01-24T00:47:17;36.30;;;19.10;;
47659;SDS011;33403;43.608;1.458;2023-01-24T00:49:43;38.20;;;19.63;;
47659;SDS011;33403;43.608;1.458;2023-01-24T00:52:09;38.60;;;19.83;;
47659;SDS011;33403;43.608;1.458;2023-01-24T00:54:35;41.67;;;19.90;;
47659;SDS011;33403;43.608;1.458;2023-01-24T00:57:01;36.97;;;19.10;;
47659;SDS011;33403;43.608;1.458;2023-01-24T00:59:27;37.80;;;20.07;;
47659;SDS011;33403;43.608;1.458;2023-01-24T01:01:53;37.93;;;19.83;;
47659;SDS011;33403;43.608;1.458;2023-01-24T01:04:19;37.07;;;19.67;;
47659;SDS011;33403;43.608;1.458;2023-01-24T01:06:45;41.47;;;19.67;;
47659;SDS011;33403;43.608;1.458;2023-01-24T01:09:11;37.60;;;19.53;;
47659;SDS011;33403;43.608;1.458;2023-01-24T01:11:37;37.93;;;19.67;;
47659;SDS011;33403;43.608;1.458;2023-01-24T01:14:06;35.70;;;18.73;;
47659;SDS011;33403;43.608;1.458;2023-01-24T01:16:32;35.73;;;19.07;;
47659;SDS011;33403;43.608;1.458;2023-01-24T01:19:02;41.20;;;20.27;;
47659;SDS011;33403;43.608;1.458;2023-01-24T01:21:29;38.10;;;19.00;;
47659;SDS011;33403;43.608;1.458;2023-01-24T01:23:55;37.03;;;19.53;;
47659;SDS011;33403;43.608;1.458;2023-01-24T01:26:21;42.53;;;19.83;;
47659;SDS011;33403;43.608;1.458;2023-01-24T01:28:47;39.97;;;20.30;;
47659;SDS011;33403;43.608;1.458;2023-01-24T01:31:14;39.80;;;18.57;;
47659;SDS011;33403;43.608;1.458;2023-01-24T01:33:40;39.17;;;19.67;;
47659;SDS011;33403;43.608;1.458;2023-01-24T01:36:08;38.37;;;19.60;;
47659;SDS011;33403;43.608;1.458;2023-01-24T01:38:34;37.20;;;20.03;;
47659;SDS011;33403;43.608;1.458;2023-01-24T01:41:00;38.27;;;18.83;;
47659;SDS011;33403;43.608;1.458;2023-01-24T01:43:27;36.27;;;18.93;;
47659;SDS011;33403;43.608;1.458;2023-01-24T01:45:54;39.37;;;20.30;;
47659;SDS011;33403;43.608;1.458;2023-01-24T01:48:22;38.43;;;19.30;;
47659;SDS011;33403;43.608;1.458;2023-01-24T01:53:35;38.10;;;18.57;;
47659;SDS011;33403;43.608;1.458;2023-01-24T01:56:07;36.00;;;19.03;;
47659;SDS011;33403;43.608;1.458;2023-01-24T01:58:37;35.30;;;19.30;;
47659;SDS011;33403;43.608;1.458;2023-01-24T02:01:03;38.07;;;19.50;;
47659;SDS011;33403;43.608;1.458;2023-01-24T02:03:32;38.37;;;19.20;;
47659;SDS011;33403;43.608;1.458;2023-01-24T02:06:03;36.47;;;18.83;;
47659;SDS011;33403;43.608;1.458;2023-01-24T02:08:29;39.17;;;19.37;;
47659;SDS011;33403;43.608;1.458;2023-01-24T02:10:55;40.23;;;19.63;;
47659;SDS011;33403;43.608;1.458;2023-01-24T02:13:41;36.17;;;18.63;;
47659;SDS011;33403;43.608;1.458;2023-01-24T02:16:09;37.43;;;19.20;;
47659;SDS011;33403;43.608;1.458;2023-01-24T02:18:35;38.47;;;19.00;;
47659;SDS011;33403;43.608;1.458;2023-01-24T02:21:09;40.10;;;19.43;;
47659;SDS011;33403;43.608;1.458;2023-01-24T02:26:41;35.20;;;18.30;;
47659;SDS011;33403;43.608;1.458;2023-01-24T02:29:09;39.07;;;19.50;;
47659;SDS011;33403;43.608;1.458;2023-01-24T02:34:19;36.67;;;18.77;;
47659;SDS011;33403;43.608;1.458;2023-01-24T02:36:44;38.47;;;18.80;;
47659;SDS011;33403;43.608;1.458;2023-01-24T02:39:16;36.43;;;18.70;;
47659;SDS011;33403;43.608;1.458;2023-01-24T02:41:45;34.70;;;18.07;;
47659;SDS011;33403;43.608;1.458;2023-01-24T02:44:15;36.30;;;18.47;;
47659;SDS011;33403;43.608;1.458;2023-01-24T02:46:43;39.50;;;18.60;;
47659;SDS011;33403;43.608;1.458;2023-01-24T02:49:09;38.03;;;18.53;;
47659;SDS011;33403;43.608;1.458;2023-01-24T02:51:36;35.23;;;18.87;;
47659;SDS011;33403;43.608;1.458;2023-01-24T02:54:31;41.43;;;18.53;;
47659;SDS011;33403;43.608;1.458;2023-01-24T02:56:57;34.20;;;18.27;;
47659;SDS011;33403;43.608;1.458;2023-01-24T02:59:42;36.53;;;18.57;;
47659;SDS011;33403;43.608;1.458;2023-01-24T03:02:08;34.33;;;18.07;;
47659;SDS011;33403;43.608;1.458;2023-01-24T03:04:34;35.73;;;18.00;;
47659;SDS011;33403;43.608;1.458;2023-01-24T03:07:00;35.20;;;18.73;;
47659;SDS011;33403;43.608;1.458;2023-01-24T03:09:26;36.00;;;18.60;;
47659;SDS011;33403;43.608;1.458;2023-01-24T03:11:59;35.43;;;18.33;;
47659;SDS011;33403;43.608;1.458;2023-01-24T03:14:44;35.47;;;18.73;;
47659;SDS011;33403;43.608;1.458;2023-01-24T03:17:29;37.13;;;19.70;;
47659;SDS011;33403;43.608;1.458;2023-01-24T03:20:14;33.60;;;17.30;;
47659;SDS011;33403;43.608;1.458;2023-01-24T03:22:58;34.17;;;17.57;;
47659;SDS011;33403;43.608;1.458;2023-01-24T03:25:43;35.83;;;18.23;;
47659;SDS011;33403;43.608;1.458;2023-01-24T03:28:28;35.40;;;18.17;;
47659;SDS011;33403;43.608;1.458;2023-01-24T03:31:12;34.93;;;18.43;;
47659;SDS011;33403;43.608;1.458;2023-01-24T03:33:57;35.60;;;17.87;;
47659;SDS011;33403;43.608;1.458;2023-01-24T03:36:41;32.10;;;16.40;;
47659;SDS011;33403;43.608;1.458;2023-01-24T03:39:08;34.43;;;18.00;;
47659;SDS011;33403;43.608;1.458;2023-01-24T03:41:53;33.13;;;17.33;;
47659;SDS011;33403;43.608;1.458;2023-01-24T03:44:19;36.13;;;18.70;;
47659;SDS011;33403;43.608;1.458;2023-01-24T03:46:45;36.40;;;17.77;;
47659;SDS011;33403;43.608;1.458;2023-01-24T03:49:12;35.27;;;17.17;;
47659;SDS011;33403;43.608;1.458;2023-01-24T03:51:38;33.57;;;17.73;;
47659;SDS011;33403;43.608;1.458;2023-01-24T03:54:23;34.93;;;18.33;;
47659;SDS011;33403;43.608;1.458;2023-01-24T03:56:49;33.27;;;17.10;;
47659;SDS011;33403;43.608;1.458;2023-01-24T03:59:15;36.03;;;17.60;;
47659;SDS011;33403;43.608;1.458;2023-01-24T04:01:41;35.13;;;17.40;;
47659;SDS011;33403;43.608;1.458;2023-01-24T04:04:07;33.57;;;17.60;;
47659;SDS011;33403;43.608;1.458;2023-01-24T04:06:33;34.30;;;17.57;;
47659;SDS011;33403;43.608;1.458;2023-01-24T04:08:59;33.20;;;17.60;;
47659;SDS011;33403;43.608;1.458;2023-01-24T04:11:25;36.97;;;17.70;;
47659;SDS011;33403;43.608;1.458;2023-01-24T04:13:51;33.97;;;18.03;;
47659;SDS011;33403;43.608;1.458;2023-01-24T04:16:17;33.30;;;17.13;;
47659;SDS011;33403;43.608;1.458;2023-01-24T04:18:43;34.23;;;17.57;;
47659;SDS011;33403;43.608;1.458;2023-01-24T04:21:09;32.80;;;17.40;;
47659;SDS011;33403;43.608;1.458;2023-01-24T04:23:36;32.13;;;17.07;;
47659;SDS011;33403;43.608;1.458;2023-01-24T04:26:03;33.63;;;17.47;;
47659;SDS011;33403;43.608;1.458;2023-01-24T04:28:30;34.77;;;17.17;;
47659;SDS011;33403;43.608;1.458;2023-01-24T04:31:00;34.03;;;17.57;;
47659;SDS011;33403;43.608;1.458;2023-01-24T04:33:26;32.43;;;16.53;;
47659;SDS011;33403;43.608;1.458;2023-01-24T04:35:55;33.73;;;17.43;;
47659;SDS011;33403;43.608;1.458;2023-01-24T04:38:21;31.53;;;16.77;;
47659;SDS011;33403;43.608;1.458;2023-01-24T04:40:55;35.00;;;17.57;;
47659;SDS011;33403;43.608;1.458;2023-01-24T04:43:21;32.43;;;16.83;;
47659;SDS011;33403;43.608;1.458;2023-01-24T04:45:47;32.13;;;17.10;;
47659;SDS011;33403;43.608;1.458;2023-01-24T04:48:13;36.17;;;18.33;;
47659;SDS011;33403;43.608;1.458;2023-01-24T04:50:39;32.63;;;17.27;;
47659;SDS011;33403;43.608;1.458;2023-01-24T04:53:05;34.43;;;17.97;;
47659;SDS011;33403;43.608;1.458;2023-01-24T04:55:31;33.63;;;18.23;;
47659;SDS011;33403;43.608;1.458;2023-01-24T04:57:57;34.80;;;17.73;;
47659;SDS011;33403;43.608;1.458;2023-01-24T05:00:23;33.37;;;17.87;;
47659;SDS011;33403;43.608;1.458;2023-01-24T05:02:52;34.13;;;18.33;;
47659;SDS011;33403;43.608;1.458;2023-01-24T05:05:18;31.57;;;16.77;;
47659;SDS011;33403;43.608;1.458;2023-01-24T05:07:44;33.90;;;17.93;;
47659;SDS011;33403;43.608;1.458;2023-01-24T05:10:10;36.77;;;18.07;;
47659;SDS011;33403;43.608;1.458;2023-01-24T05:12:36;32.83;;;17.27;;
47659;SDS011;33403;43.608;1.458;2023-01-24T05:15:02;34.80;;;17.50;;
47659;SDS011;33403;43.608;1.458;2023-01-24T05:17:29;33.83;;;17.03;;
47659;SDS011;33403;43.608;1.458;2023-01-24T05:19:55;35.73;;;18.50;;
47659;SDS011;33403;43.608;1.458;2023-01-24T05:22:21;34.70;;;17.77;;
47659;SDS011;33403;43.608;1.458;2023-01-24T05:24:47;33.50;;;17.10;;
47659;SDS011;33403;43.608;1.458;2023-01-24T05:27:13;33.93;;;17.80;;
47659;SDS011;33403;43.608;1.458;2023-01-24T05:29:39;34.27;;;17.50;;
47659;SDS011;33403;43.608;1.458;2023-01-24T05:32:05;36.07;;;17.60;;
47659;SDS011;33403;43.608;1.458;2023-01-24T05:34:31;34.13;;;18.67;;
47659;SDS011;33403;43.608;1.458;2023-01-24T05:36:57;35.07;;;17.97;;
47659;SDS011;33403;43.608;1.458;2023-01-24T05:39:23;34.43;;;17.43;;
47659;SDS011;33403;43.608;1.458;2023-01-24T05:41:49;34.60;;;17.90;;
47659;SDS011;33403;43.608;1.458;2023-01-24T05:44:15;35.77;;;18.43;;
47659;SDS011;33403;43.608;1.458;2023-01-24T05:46:41;33.37;;;16.87;;
47659;SDS011;33403;43.608;1.458;2023-01-24T05:49:09;33.90;;;17.40;;
47659;SDS011;33403;43.608;1.458;2023-01-24T05:51:35;34.90;;;17.70;;
47659;SDS011;33403;43.608;1.458;2023-01-24T05:54:01;34.43;;;16.93;;
47659;SDS011;33403;43.608;1.458;2023-01-24T05:56:27;34.00;;;17.40;;
47659;SDS011;33403;43.608;1.458;2023-01-24T05:58:53;31.63;;;17.10;;
47659;SDS011;33403;43.608;1.458;2023-01-24T06:01:20;31.20;;;16.63;;
47659;SDS011;33403;43.608;1.458;2023-01-24T06:03:47;35.47;;;18.07;;
47659;SDS011;33403;43.608;1.458;2023-01-24T06:06:15;33.10;;;17.20;;
47659;SDS011;33403;43.608;1.458;2023-01-24T06:08:41;35.07;;;18.00;;
47659;SDS011;33403;43.608;1.458;2023-01-24T06:11:12;35.90;;;17.83;;
47659;SDS011;33403;43.608;1.458;2023-01-24T06:13:38;33.33;;;17.40;;
47659;SDS011;33403;43.608;1.458;2023-01-24T06:16:26;36.93;;;18.40;;
47659;SDS011;33403;43.608;1.458;2023-01-24T06:18:53;33.80;;;17.57;;
47659;SDS011;33403;43.608;1.458;2023-01-24T06:21:36;34.80;;;17.40;;
47659;SDS011;33403;43.608;1.458;2023-01-24T06:24:07;36.13;;;17.73;;
47659;SDS011;33403;43.608;1.458;2023-01-24T06:26:34;32.40;;;16.93;;
47659;SDS011;33403;43.608;1.458;2023-01-24T06:29:00;35.47;;;18.03;;
47659;SDS011;33403;43.608;1.458;2023-01-24T06:38:54;34.20;;;17.93;;
47659;SDS011;33403;43.608;1.458;2023-01-24T06:41:20;36.00;;;18.17;;
47659;SDS011;33403;43.608;1.458;2023-01-24T06:43:46;34.20;;;17.73;;
47659;SDS011;33403;43.608;1.458;2023-01-24T06:46:13;36.73;;;18.60;;
47659;SDS011;33403;43.608;1.458;2023-01-24T06:48:41;32.67;;;17.73;;
47659;SDS011;33403;43.608;1.458;2023-01-24T06:51:08;35.50;;;17.93;;
47659;SDS011;33403;43.608;1.458;2023-01-24T06:53:35;32.70;;;17.23;;
47659;SDS011;33403;43.608;1.458;2023-01-24T06:56:01;35.87;;;17.90;;
47659;SDS011;33403;43.608;1.458;2023-01-24T06:58:27;37.37;;;17.47;;
47659;SDS011;33403;43.608;1.458;2023-01-24T07:00:53;35.40;;;18.07;;
47659;SDS011;33403;43.608;1.458;2023-01-24T07:03:19;33.00;;;17.57;;
47659;SDS011;33403;43.608;1.458;2023-01-24T07:05:45;34.03;;;17.97;;
47659;SDS011;33403;43.608;1.458;2023-01-24T07:08:13;36.13;;;17.67;;
47659;SDS011;33403;43.608;1.458;2023-01-24T07:10:39;36.03;;;18.37;;
47659;SDS011;33403;43.608;1.458;2023-01-24T07:13:05;34.60;;;17.97;;
47659;SDS011;33403;43.608;1.458;2023-01-24T07:15:31;33.33;;;17.90;;
47659;SDS011;33403;43.608;1.458;2023-01-24T07:18:07;33.13;;;17.80;;
47659;SDS011;33403;43.608;1.458;2023-01-24T07:20:33;33.77;;;16.87;;
47659;SDS011;33403;43.608;1.458;2023-01-24T07:22:59;34.50;;;17.37;;
47659;SDS011;33403;43.608;1.458;2023-01-24T07:25:26;33.80;;;17.60;;
47659;SDS011;33403;43.608;1.458;2023-01-24T07:27:52;33.90;;;17.57;;
47659;SDS011;33403;43.608;1.458;2023-01-24T07:30:18;33.97;;;18.10;;
47659;SDS011;33403;43.608;1.458;2023-01-24T07:32:44;34.03;;;17.90;;
47659;SDS011;33403;43.608;1.458;2023-01-24T07:35:10;36.37;;;18.57;;
47659;SDS011;33403;43.608;1.458;2023-01-24T07:37:37;42.13;;;19.90;;
47659;SDS011;33403;43.608;1.458;2023-01-24T07:40:04;42.03;;;19.10;;
47659;SDS011;33403;43.608;1.458;2023-01-24T07:42:30;37.37;;;18.47;;
47659;SDS011;33403;43.608;1.458;2023-01-24T07:44:56;30.40;;;16.83;;
47659;SDS011;33403;43.608;1.458;2023-01-24T07:47:23;38.00;;;18.10;;
47659;SDS011;33403;43.608;1.458;2023-01-24T07:49:51;34.97;;;18.03;;
47659;SDS011;33403;43.608;1.458;2023-01-24T07:52:17;37.97;;;18.33;;
47659;SDS011;33403;43.608;1.458;2023-01-24T07:54:43;38.07;;;18.37;;
47659;SDS011;33403;43.608;1.458;2023-01-24T07:57:09;36.23;;;17.87;;
47659;SDS011;33403;43.608;1.458;2023-01-24T07:59:35;38.90;;;18.83;;
47659;SDS011;33403;43.608;1.458;2023-01-24T08:02:01;37.83;;;18.93;;
47659;SDS011;33403;43.608;1.458;2023-01-24T08:04:27;38.80;;;19.50;;
47659;SDS011;33403;43.608;1.458;2023-01-24T08:06:53;37.33;;;18.47;;
47659;SDS011;33403;43.608;1.458;2023-01-24T08:09:38;42.70;;;19.13;;
47659;SDS011;33403;43.608;1.458;2023-01-24T08:12:04;38.40;;;18.93;;
47659;SDS011;33403;43.608;1.458;2023-01-24T08:14:30;37.27;;;18.83;;
47659;SDS011;33403;43.608;1.458;2023-01-24T08:16:56;36.93;;;18.40;;
47659;SDS011;33403;43.608;1.458;2023-01-24T08:19:22;36.77;;;18.17;;
47659;SDS011;33403;43.608;1.458;2023-01-24T08:21:48;38.30;;;18.93;;
47659;SDS011;33403;43.608;1.458;2023-01-24T08:24:15;36.63;;;18.80;;
47659;SDS011;33403;43.608;1.458;2023-01-24T08:26:41;38.03;;;18.90;;
47659;SDS011;33403;43.608;1.458;2023-01-24T08:30:25;37.37;;;18.70;;
47659;SDS011;33403;43.608;1.458;2023-01-24T08:32:58;37.17;;;18.53;;
47659;SDS011;33403;43.608;1.458;2023-01-24T08:35:24;34.33;;;17.67;;
47659;SDS011;33403;43.608;1.458;2023-01-24T08:37:50;34.97;;;18.57;;
47659;SDS011;33403;43.608;1.458;2023-01-24T08:40:16;35.70;;;18.03;;
47659;SDS011;33403;43.608;1.458;2023-01-24T08:42:44;36.57;;;18.10;;
47659;SDS011;33403;43.608;1.458;2023-01-24T08:45:10;36.17;;;17.73;;
47659;SDS011;33403;43.608;1.458;2023-01-24T08:47:36;36.23;;;17.73;;
47659;SDS011;33403;43.608;1.458;2023-01-24T08:50:02;31.07;;;16.93;;
47659;SDS011;33403;43.608;1.458;2023-01-24T08:52:28;36.27;;;17.70;;
47659;SDS011;33403;43.608;1.458;2023-01-24T08:54:54;34.40;;;17.47;;
47659;SDS011;33403;43.608;1.458;2023-01-24T08:57:20;34.40;;;17.67;;
47659;SDS011;33403;43.608;1.458;2023-01-24T08:59:47;34.00;;;17.00;;
47659;SDS011;33403;43.608;1.458;2023-01-24T09:02:13;35.17;;;17.63;;
47659;SDS011;33403;43.608;1.458;2023-01-24T09:04:40;35.17;;;18.13;;
47659;SDS011;33403;43.608;1.458;2023-01-24T09:07:07;34.37;;;17.73;;
47659;SDS011;33403;43.608;1.458;2023-01-24T09:09:33;32.63;;;17.57;;
47659;SDS011;33403;43.608;1.458;2023-01-24T09:11:59;34.37;;;18.30;;
47659;SDS011;33403;43.608;1.458;2023-01-24T09:14:25;35.17;;;18.50;;
47659;SDS011;33403;43.608;1.458;2023-01-24T09:16:51;36.97;;;19.00;;
47659;SDS011;33403;43.608;1.458;2023-01-24T09:19:17;36.20;;;18.20;;
47659;SDS011;33403;43.608;1.458;2023-01-24T09:21:43;37.77;;;19.53;;
47659;SDS011;33403;43.608;1.458;2023-01-24T09:24:11;39.67;;;19.57;;
47659;SDS011;33403;43.608;1.458;2023-01-24T09:26:37;35.93;;;18.70;;
47659;SDS011;33403;43.608;1.458;2023-01-24T09:29:04;35.83;;;17.80;;
47659;SDS011;33403;43.608;1.458;2023-01-24T09:31:30;33.90;;;17.97;;
47659;SDS011;33403;43.608;1.458;2023-01-24T09:33:56;35.70;;;18.20;;
47659;SDS011;33403;43.608;1.458;2023-01-24T09:36:22;35.87;;;18.23;;
47659;SDS011;33403;43.608;1.458;2023-01-24T09:38:48;34.77;;;19.47;;
47659;SDS011;33403;43.608;1.458;2023-01-24T09:43:51;34.70;;;17.87;;
47659;SDS011;33403;43.608;1.458;2023-01-24T09:46:25;35.10;;;18.47;;
47659;SDS011;33403;43.608;1.458;2023-01-24T09:48:54;36.60;;;19.10;;
47659;SDS011;33403;43.608;1.458;2023-01-24T09:51:24;35.07;;;19.37;;
47659;SDS011;33403;43.608;1.458;2023-01-24T09:53:51;41.47;;;20.50;;
47659;SDS011;33403;43.608;1.458;2023-01-24T09:56:22;34.73;;;18.43;;
47659;SDS011;33403;43.608;1.458;2023-01-24T09:59:12;34.13;;;17.67;;
47659;SDS011;33403;43.608;1.458;2023-01-24T10:01:40;34.33;;;17.97;;
47659;SDS011;33403;43.608;1.458;2023-01-24T10:20:07;34.13;;;18.03;;
47659;SDS011;33403;43.608;1.458;2023-01-24T10:25:10;31.63;;;17.57;;
47659;SDS011;33403;43.608;1.458;2023-01-24T10:27:45;31.23;;;17.23;;
47659;SDS011;33403;43.608;1.458;2023-01-24T10:32:41;29.97;;;16.23;;
47659;SDS011;33403;43.608;1.458;2023-01-24T10:37:38;29.77;;;16.33;;
47659;SDS011;33403;43.608;1.458;2023-01-24T10:40:11;29.83;;;15.77;;
47659;SDS011;33403;43.608;1.458;2023-01-24T10:42:37;31.20;;;16.37;;
47659;SDS011;33403;43.608;1.458;2023-01-24T10:50:16;28.57;;;16.40;;
47659;SDS011;33403;43.608;1.458;2023-01-24T10:52:43;28.90;;;16.03;;
47659;SDS011;33403;43.608;1.458;2023-01-24T10:55:33;28.47;;;15.90;;
47659;SDS011;33403;43.608;1.458;2023-01-24T10:58:01;27.57;;;15.73;;
47659;SDS011;33403;43.608;1.458;2023-01-24T11:00:30;29.17;;;15.47;;
47659;SDS011;33403;43.608;1.458;2023-01-24T11:03:09;29.33;;;16.17;;
47659;SDS011;33403;43.608;1.458;2023-01-24T11:05:43;25.37;;;15.33;;
47659;SDS011;33403;43.608;1.458;2023-01-24T11:10:55;26.90;;;15.77;;
47659;SDS011;33403;43.608;1.458;2023-01-24T11:16:03;28.90;;;15.87;;
47659;SDS011;33403;43.608;1.458;2023-01-24T11:18:30;26.13;;;15.57;;
47659;SDS011;33403;43.608;1.458;2023-01-24T11:21:08;27.70;;;15.97;;
47659;SDS011;33403;43.608;1.458;2023-01-24T11:23:34;27.30;;;16.10;;
47659;SDS011;33403;43.608;1.458;2023-01-24T11:26:01;26.90;;;15.83;;
47659;SDS011;33403;43.608;1.458;2023-01-24T11:30:58;27.23;;;15.90;;
47659;SDS011;33403;43.608;1.458;2023-01-24T11:38:46;27.13;;;15.40;;
47659;SDS011;33403;43.608;1.458;2023-01-24T11:41:15;26.13;;;15.50;;
47659;SDS011;33403;43.608;1.458;2023-01-24T11:48:50;24.07;;;14.73;;
47659;SDS011;33403;43.608;1.458;2023-01-24T11:54:15;27.43;;;16.07;;
47659;SDS011;33403;43.608;1.458;2023-01-24T12:02:03;29.83;;;16.30;;
47659;SDS011;33403;43.608;1.458;2023-01-24T12:07:09;27.40;;;15.20;;
47659;SDS011;33403;43.608;1.458;2023-01-24T12:09:48;24.13;;;14.13;;
47659;SDS011;33403;43.608;1.458;2023-01-24T12:22:21;23.83;;;14.33;;
47659;SDS011;33403;43.608;1.458;2023-01-24T12:24:51;24.03;;;14.33;;
47659;SDS011;33403;43.608;1.458;2023-01-24T12:27:19;25.80;;;14.90;;
47659;SDS011;33403;43.608;1.458;2023-01-24T12:32:22;24.23;;;14.40;;
47659;SDS011;33403;43.608;1.458;2023-01-24T12:34:50;23.63;;;14.37;;
47659;SDS011;33403;43.608;1.458;2023-01-24T12:38:20;24.43;;;14.17;;
47659;SDS011;33403;43.608;1.458;2023-01-24T12:45:59;26.23;;;15.23;;
47659;SDS011;33403;43.608;1.458;2023-01-24T12:53:29;24.87;;;15.17;;
47659;SDS011;33403;43.608;1.458;2023-01-24T12:58:23;23.10;;;13.87;;
47659;SDS011;33403;43.608;1.458;2023-01-24T13:05:50;27.03;;;13.97;;
47659;SDS011;33403;43.608;1.458;2023-01-24T13:13:33;28.90;;;13.63;;
47659;SDS011;33403;43.608;1.458;2023-01-24T13:29:17;22.47;;;12.80;;
47659;SDS011;33403;43.608;1.458;2023-01-24T13:31:58;20.77;;;12.97;;
47659;SDS011;33403;43.608;1.458;2023-01-24T13:34:30;22.47;;;13.17;;
47659;SDS011;33403;43.608;1.458;2023-01-24T13:36:57;22.57;;;13.30;;
47659;SDS011;33403;43.608;1.458;2023-01-24T13:39:29;21.77;;;13.80;;
47659;SDS011;33403;43.608;1.458;2023-01-24T13:42:03;21.60;;;13.50;;
47659;SDS011;33403;43.608;1.458;2023-01-24T13:44:30;24.03;;;13.57;;
47659;SDS011;33403;43.608;1.458;2023-01-24T13:55:03;19.70;;;12.17;;
47659;SDS011;33403;43.608;1.458;2023-01-24T13:57:33;21.10;;;12.40;;
47659;SDS011;33403;43.608;1.458;2023-01-24T14:02:29;19.17;;;11.77;;
47659;SDS011;33403;43.608;1.458;2023-01-24T14:04:56;21.33;;;12.93;;
47659;SDS011;33403;43.608;1.458;2023-01-24T14:07:29;20.33;;;12.63;;
47659;SDS011;33403;43.608;1.458;2023-01-24T14:09:59;21.00;;;13.20;;
47659;SDS011;33403;43.608;1.458;2023-01-24T14:12:26;22.07;;;12.93;;
47659;SDS011;33403;43.608;1.458;2023-01-24T14:17:43;21.93;;;12.90;;
47659;SDS011;33403;43.608;1.458;2023-01-24T14:23:20;21.37;;;13.13;;
47659;SDS011;33403;43.608;1.458;2023-01-24T14:25:51;18.07;;;11.27;;
47659;SDS011;33403;43.608;1.458;2023-01-24T14:28:20;19.33;;;11.10;;
47659;SDS011;33403;43.608;1.458;2023-01-24T14:31:01;16.40;;;11.13;;
47659;SDS011;33403;43.608;1.458;2023-01-24T14:35:59;19.70;;;11.90;;
47659;SDS011;33403;43.608;1.458;2023-01-24T14:38:26;20.23;;;12.07;;
47659;SDS011;33403;43.608;1.458;2023-01-24T14:40:52;18.13;;;11.50;;
47659;SDS011;33403;43.608;1.458;2023-01-24T14:43:23;17.27;;;10.80;;
47659;SDS011;33403;43.608;1.458;2023-01-24T14:45:50;16.70;;;10.63;;
47659;SDS011;33403;43.608;1.458;2023-01-24T14:48:20;17.17;;;10.93;;
47659;SDS011;33403;43.608;1.458;2023-01-24T14:50:55;18.90;;;11.13;;
47659;SDS011;33403;43.608;1.458;2023-01-24T14:53:22;17.33;;;11.83;;
47659;SDS011;33403;43.608;1.458;2023-01-24T14:55:49;18.33;;;12.10;;
47659;SDS011;33403;43.608;1.458;2023-01-24T14:58:20;19.70;;;12.17;;
47659;SDS011;33403;43.608;1.458;2023-01-24T15:00:47;20.37;;;12.67;;
47659;SDS011;33403;43.608;1.458;2023-01-24T15:03:15;18.03;;;11.83;;
47659;SDS011;33403;43.608;1.458;2023-01-24T15:05:48;18.00;;;11.77;;
47659;SDS011;33403;43.608;1.458;2023-01-24T15:08:15;19.23;;;12.07;;
47659;SDS011;33403;43.608;1.458;2023-01-24T15:10:44;21.20;;;13.00;;
47659;SDS011;33403;43.608;1.458;2023-01-24T15:13:17;22.47;;;13.50;;
47659;SDS011;33403;43.608;1.458;2023-01-24T15:15:44;21.07;;;12.83;;
47659;SDS011;33403;43.608;1.458;2023-01-24T15:18:29;18.30;;;11.93;;
47659;SDS011;33403;43.608;1.458;2023-01-24T15:20:57;18.80;;;12.10;;
47659;SDS011;33403;43.608;1.458;2023-01-24T15:23:24;19.90;;;12.67;;
47659;SDS011;33403;43.608;1.458;2023-01-24T15:25:53;20.93;;;12.77;;
47659;SDS011;33403;43.608;1.458;2023-01-24T15:28:29;19.77;;;12.83;;
47659;SDS011;33403;43.608;1.458;2023-01-24T15:30:56;20.17;;;12.50;;
47659;SDS011;33403;43.608;1.458;2023-01-24T15:33:22;21.67;;;12.23;;
47659;SDS011;33403;43.608;1.458;2023-01-24T15:35:48;19.00;;;11.60;;
47659;SDS011;33403;43.608;1.458;2023-01-24T15:38:22;19.17;;;11.83;;
47659;SDS011;33403;43.608;1.458;2023-01-24T15:40:53;23.30;;;13.00;;
47659;SDS011;33403;43.608;1.458;2023-01-24T15:54:35;24.13;;;12.67;;
47659;SDS011;33403;43.608;1.458;2023-01-24T15:57:02;23.33;;;12.53;;
47659;SDS011;33403;43.608;1.458;2023-01-24T15:59:29;25.33;;;13.70;;
47659;SDS011;33403;43.608;1.458;2023-01-24T16:01:55;21.97;;;14.20;;
47659;SDS011;33403;43.608;1.458;2023-01-24T16:04:21;22.93;;;14.17;;
47659;SDS011;33403;43.608;1.458;2023-01-24T16:06:48;22.50;;;13.83;;
47659;SDS011;33403;43.608;1.458;2023-01-24T16:09:14;23.10;;;14.10;;
47659;SDS011;33403;43.608;1.458;2023-01-24T16:11:44;25.03;;;14.50;;
47659;SDS011;33403;43.608;1.458;2023-01-24T16:14:14;24.23;;;13.80;;
47659;SDS011;33403;43.608;1.458;2023-01-24T16:16:41;24.27;;;13.60;;
47659;SDS011;33403;43.608;1.458;2023-01-24T16:19:14;23.60;;;14.03;;
47659;SDS011;33403;43.608;1.458;2023-01-24T16:21:41;25.10;;;14.13;;
47659;SDS011;33403;43.608;1.458;2023-01-24T16:24:07;25.13;;;14.33;;
47659;SDS011;33403;43.608;1.458;2023-01-24T16:26:33;22.87;;;13.20;;
47659;SDS011;33403;43.608;1.458;2023-01-24T16:28:59;21.43;;;12.97;;
47659;SDS011;33403;43.608;1.458;2023-01-24T16:31:25;22.00;;;13.50;;
47659;SDS011;33403;43.608;1.458;2023-01-24T16:33:51;24.37;;;13.97;;
47659;SDS011;33403;43.608;1.458;2023-01-24T16:36:17;23.03;;;13.20;;
47659;SDS011;33403;43.608;1.458;2023-01-24T16:38:43;21.90;;;13.67;;
47659;SDS011;33403;43.608;1.458;2023-01-24T16:41:10;22.03;;;13.17;;
47659;SDS011;33403;43.608;1.458;2023-01-24T16:43:37;22.70;;;13.50;;
47659;SDS011;33403;43.608;1.458;2023-01-24T16:46:03;22.30;;;13.27;;
47659;SDS011;33403;43.608;1.458;2023-01-24T16:48:41;22.70;;;13.77;;
47659;SDS011;33403;43.608;1.458;2023-01-24T16:51:10;22.33;;;13.30;;
47659;SDS011;33403;43.608;1.458;2023-01-24T16:53:36;21.10;;;12.73;;
47659;SDS011;33403;43.608;1.458;2023-01-24T16:56:02;21.33;;;12.90;;
47659;SDS011;33403;43.608;1.458;2023-01-24T16:58:28;19.97;;;12.37;;
47659;SDS011;33403;43.608;1.458;2023-01-24T17:00:55;21.93;;;13.10;;
47659;SDS011;33403;43.608;1.458;2023-01-24T17:03:21;22.70;;;13.23;;
47659;SDS011;33403;43.608;1.458;2023-01-24T17:05:47;21.30;;;13.00;;